createdAt,value
2022-11-05T00:01:19.850Z,8.631897
2022-11-05T00:04:45.005Z,8.621826
2022-11-05T00:08:10.243Z,8.561401
2022-11-05T00:11:35.547Z,8.611755
2022-11-05T00:15:00.794Z,8.591614
2022-11-05T00:18:26.048Z,8.621826
2022-11-05T00:21:51.290Z,8.591614
2022-11-05T00:25:16.537Z,8.621826
2022-11-05T00:28:41.833Z,8.591614
2022-11-05T00:32:07.029Z,8.591614
2022-11-05T00:35:33.015Z,8.581543
2022-11-05T00:38:58.269Z,8.581543
2022-11-05T00:42:23.496Z,8.561401
2022-11-05T00:45:48.761Z,8.591614
2022-11-05T00:49:13.979Z,8.591614
2022-11-05T00:52:39.217Z,8.521118
2022-11-05T00:56:04.479Z,8.480835
2022-11-05T00:59:29.733Z,8.450623
2022-11-05T01:02:55.075Z,8.440552
2022-11-05T01:06:20.250Z,8.450623
2022-11-05T01:09:45.479Z,8.400269
2022-11-05T01:13:13.085Z,8.470764
2022-11-05T01:16:35.964Z,8.470764
2022-11-05T01:20:01.230Z,8.370056
2022-11-05T01:23:26.440Z,8.440552
2022-11-05T01:26:51.683Z,8.380127
2022-11-05T01:30:16.968Z,8.380127
2022-11-05T01:33:42.206Z,8.339844
2022-11-05T01:37:07.450Z,8.339844
2022-11-05T01:40:32.679Z,8.370056
2022-11-05T01:43:57.958Z,8.400269
2022-11-05T01:47:23.188Z,8.440552
2022-11-05T01:50:48.442Z,8.430481
2022-11-05T01:54:13.704Z,8.410339
2022-11-05T01:57:38.920Z,8.370056
2022-11-05T02:01:04.184Z,8.370056
2022-11-05T02:04:29.418Z,8.359985
2022-11-05T02:07:54.680Z,8.339844
2022-11-05T02:11:19.954Z,8.370056
2022-11-05T02:14:45.179Z,8.359985
2022-11-05T02:18:10.429Z,8.450623
2022-11-05T02:21:35.666Z,8.561401
2022-11-05T02:25:00.908Z,8.652039
2022-11-05T02:28:26.187Z,8.742676
2022-11-05T02:31:51.412Z,8.762817
2022-11-05T02:35:16.683Z,8.762817
2022-11-05T02:38:41.944Z,8.732605
2022-11-05T02:42:07.206Z,8.742676
2022-11-05T02:45:32.486Z,8.742676
2022-11-05T02:48:57.702Z,8.712463
2022-11-05T02:52:22.964Z,8.682251
2022-11-05T02:55:48.219Z,8.682251
2022-11-05T02:59:13.480Z,8.682251
2022-11-05T03:02:38.916Z,8.712463
2022-11-05T03:06:04.013Z,8.702393
2022-11-05T03:09:29.274Z,8.742676
2022-11-05T03:12:54.560Z,8.712463
2022-11-05T03:16:19.808Z,8.732605
2022-11-05T03:19:45.099Z,8.742676
2022-11-05T03:23:10.623Z,8.742676
2022-11-05T03:26:35.551Z,8.702393
2022-11-05T03:30:00.799Z,8.631897
2022-11-05T03:33:26.053Z,8.621826
2022-11-05T03:36:51.328Z,8.551331
2022-11-05T03:40:16.574Z,8.531189
2022-11-05T03:43:41.836Z,8.521118
2022-11-05T03:47:07.078Z,8.480835
2022-11-05T03:50:34.721Z,8.531189
2022-11-05T03:53:57.601Z,8.500977
2022-11-05T03:57:22.810Z,8.470764
2022-11-05T04:00:48.053Z,8.450623
2022-11-05T04:04:13.305Z,8.410339
2022-11-05T04:07:38.556Z,8.400269
2022-11-05T04:11:03.830Z,8.430481
2022-11-05T04:14:29.057Z,8.531189
2022-11-05T04:17:54.322Z,8.561401
2022-11-05T04:21:19.587Z,8.551331
2022-11-05T04:24:44.852Z,8.591614
2022-11-05T04:28:10.143Z,8.621826
2022-11-05T04:31:35.357Z,8.611755
2022-11-05T04:35:00.620Z,8.631897
2022-11-05T04:38:25.862Z,8.621826
2022-11-05T04:41:51.083Z,8.631897
2022-11-05T04:45:16.369Z,8.631897
2022-11-05T04:48:41.610Z,8.652039
2022-11-05T04:52:06.854Z,8.611755
2022-11-05T04:55:32.099Z,8.531189
2022-11-05T04:58:57.365Z,8.521118
2022-11-05T05:02:22.710Z,8.480835
2022-11-05T05:05:47.820Z,8.521118
2022-11-05T05:09:13.042Z,8.500977
2022-11-05T05:12:38.280Z,8.470764
2022-11-05T05:16:03.577Z,8.440552
2022-11-05T05:19:28.919Z,8.430481
2022-11-05T05:22:54.189Z,8.400269
2022-11-05T05:26:19.443Z,8.440552
2022-11-05T05:29:44.718Z,8.430481
2022-11-05T05:33:10.144Z,8.430481
2022-11-05T05:36:35.263Z,8.450623
2022-11-05T05:40:00.489Z,8.480835
2022-11-05T05:43:25.737Z,8.470764
2022-11-05T05:46:50.985Z,8.470764
2022-11-05T05:50:16.228Z,8.410339
2022-11-05T05:53:41.492Z,8.440552
2022-11-05T05:57:06.718Z,8.440552
2022-11-05T06:00:31.949Z,8.370056
2022-11-05T06:03:57.197Z,8.359985
2022-11-05T06:07:22.456Z,8.359985
2022-11-05T06:10:47.798Z,8.299561
2022-11-05T06:14:12.988Z,8.279419
2022-11-05T06:17:38.252Z,8.218994
2022-11-05T06:21:03.492Z,8.249207
2022-11-05T06:24:28.774Z,8.259277
2022-11-05T06:27:54.030Z,8.299561
2022-11-05T06:31:19.234Z,8.279419
2022-11-05T06:34:44.481Z,8.299561
2022-11-05T06:38:09.730Z,8.339844
2022-11-05T06:41:41.447Z,8.410339
2022-11-05T06:45:00.265Z,8.450623
2022-11-05T06:48:25.493Z,8.581543
2022-11-05T06:51:50.746Z,8.652039
2022-11-05T06:55:15.996Z,8.621826
2022-11-05T06:58:41.249Z,8.662109
2022-11-05T07:02:06.632Z,8.702393
2022-11-05T07:05:31.782Z,8.662109
2022-11-05T07:08:57.021Z,8.712463
2022-11-05T07:12:22.281Z,8.732605
2022-11-05T07:15:47.528Z,8.79303
2022-11-05T07:19:12.814Z,8.833313
2022-11-05T07:22:38.033Z,8.843384
2022-11-05T07:26:03.285Z,8.913879
2022-11-05T07:29:28.541Z,8.954163
2022-11-05T07:32:53.819Z,8.944092
2022-11-05T07:36:19.068Z,8.964233
2022-11-05T07:39:44.309Z,8.913879
2022-11-05T07:43:09.821Z,8.893738
2022-11-05T07:46:34.798Z,8.913879
2022-11-05T07:50:00.058Z,8.984375
2022-11-05T07:53:25.320Z,9.014587
2022-11-05T07:56:50.554Z,9.054871
2022-11-05T08:00:15.799Z,9.075012
2022-11-05T08:03:41.235Z,9.054871
2022-11-05T08:07:06.321Z,9.0448
2022-11-05T08:10:31.624Z,9.024658
2022-11-05T08:13:56.870Z,9.014587
2022-11-05T08:17:22.151Z,9.0448
2022-11-05T08:20:47.431Z,9.095154
2022-11-05T08:24:12.694Z,9.125366
2022-11-05T08:27:37.999Z,9.105225
2022-11-05T08:31:03.260Z,9.105225
2022-11-05T08:34:28.531Z,9.075012
2022-11-05T08:37:53.835Z,9.075012
2022-11-05T08:41:19.137Z,9.145508
2022-11-05T08:44:44.430Z,9.226074
2022-11-05T08:48:09.708Z,9.316711
2022-11-05T08:51:35.009Z,9.276428
2022-11-05T08:55:00.300Z,9.306641
2022-11-05T08:58:25.572Z,9.377136
2022-11-05T09:01:51.022Z,9.356995
2022-11-05T09:05:16.215Z,9.346924
2022-11-05T09:08:41.567Z,9.316711
2022-11-05T09:12:12.031Z,9.306641
2022-11-05T09:15:32.210Z,9.306641
2022-11-05T09:18:57.705Z,9.326782
2022-11-05T09:22:22.866Z,9.346924
2022-11-05T09:25:48.209Z,9.377136
2022-11-05T09:29:14.583Z,9.417419
2022-11-05T09:32:38.844Z,9.538269
2022-11-05T09:36:04.181Z,9.608765
2022-11-05T09:39:29.431Z,9.719543
2022-11-05T09:42:54.707Z,9.759827
2022-11-05T09:46:20.002Z,9.790039
2022-11-05T09:49:45.347Z,9.860535
2022-11-05T09:53:10.855Z,9.991455
2022-11-05T09:56:35.939Z,10.092163
2022-11-05T10:00:01.218Z,10.142517
2022-11-05T10:03:26.500Z,10.202942
2022-11-05T10:06:51.799Z,10.202942
2022-11-05T10:10:17.167Z,10.152588
2022-11-05T10:13:42.448Z,10.223083
2022-11-05T10:17:07.758Z,10.223083
2022-11-05T10:20:33.097Z,10.223083
2022-11-05T10:23:58.421Z,10.293579
2022-11-05T10:27:23.692Z,10.323792
2022-11-05T10:30:48.901Z,10.293579
2022-11-05T10:34:14.176Z,10.364075
2022-11-05T10:37:40.947Z,10.4245
2022-11-05T10:41:04.700Z,10.525208
2022-11-05T10:44:29.991Z,10.545349
2022-11-05T10:47:55.211Z,10.525208
2022-11-05T10:51:20.480Z,10.444641
2022-11-05T10:54:45.735Z,10.505066
2022-11-05T10:58:11.029Z,10.484924
2022-11-05T11:01:36.549Z,10.55542
2022-11-05T11:05:01.708Z,10.595703
2022-11-05T11:08:28.820Z,10.776978
2022-11-05T11:11:55.981Z,10.907898
2022-11-05T11:15:21.408Z,11.028748
2022-11-05T11:18:47.831Z,11.099243
2022-11-05T11:22:15.832Z,11.089172
2022-11-05T11:25:41.273Z,11.089172
2022-11-05T11:29:06.631Z,11.109314
2022-11-05T11:32:31.952Z,11.05896
2022-11-05T11:35:57.624Z,11.018677
2022-11-05T11:39:23.337Z,10.907898
2022-11-05T11:42:49.801Z,10.857544
2022-11-05T11:46:15.475Z,10.706482
2022-11-05T11:49:40.793Z,10.605774
2022-11-05T11:53:07.377Z,10.515137
2022-11-05T11:56:34.409Z,10.474854
2022-11-05T12:00:08.650Z,10.505066
2022-11-05T12:03:27.451Z,10.55542
2022-11-05T12:06:56.215Z,10.605774
2022-11-05T12:10:22.682Z,10.625916
2022-11-05T12:13:51.411Z,10.67627
2022-11-05T12:17:17.301Z,10.67627
2022-11-05T12:20:42.575Z,10.67627
2022-11-05T12:24:07.865Z,10.80719
2022-11-05T12:27:33.159Z,10.877686
2022-11-05T12:30:58.621Z,11.028748
2022-11-05T12:34:23.938Z,11.139526
2022-11-05T12:37:49.184Z,11.290588
2022-11-05T12:41:14.476Z,11.330872
2022-11-05T12:44:39.793Z,11.43158
2022-11-05T12:48:05.035Z,11.552429
2022-11-05T12:51:30.313Z,11.612854
2022-11-05T12:54:55.594Z,11.522217
2022-11-05T12:58:20.889Z,11.461792
2022-11-05T13:01:46.335Z,11.522217
2022-11-05T13:05:11.532Z,11.492004
2022-11-05T13:08:36.840Z,11.391296
2022-11-05T13:12:02.173Z,11.421509
2022-11-05T13:15:27.528Z,11.330872
2022-11-05T13:18:52.885Z,11.280518
2022-11-05T13:22:18.172Z,11.109314
2022-11-05T13:25:43.505Z,10.998535
2022-11-05T13:29:08.815Z,10.817261
2022-11-05T13:32:34.108Z,10.67627
2022-11-05T13:35:59.436Z,10.595703
2022-11-05T13:39:24.710Z,10.585632
2022-11-05T13:42:50.054Z,10.484924
2022-11-05T13:46:15.344Z,10.474854
2022-11-05T13:49:40.679Z,10.474854
2022-11-05T13:53:05.992Z,10.364075
2022-11-05T13:56:31.332Z,10.122375
2022-11-05T13:59:56.679Z,10.072021
2022-11-05T14:03:22.139Z,10.082092
2022-11-05T14:06:47.479Z,10.041809
2022-11-05T14:10:12.915Z,10.041809
2022-11-05T14:13:38.391Z,10.011597
2022-11-05T14:17:04.083Z,9.900818
2022-11-05T14:20:29.345Z,9.860535
2022-11-05T14:23:54.844Z,9.830322
2022-11-05T14:27:20.146Z,9.890747
2022-11-05T15:03:32.635Z,9.568481
2022-11-05T15:06:57.871Z,9.477844
2022-11-05T15:10:23.251Z,9.397278
2022-11-05T15:13:48.641Z,9.346924
2022-11-05T15:17:13.962Z,9.286499
2022-11-05T15:20:40.297Z,9.276428
2022-11-05T15:24:04.628Z,9.17572
2022-11-05T15:27:29.995Z,9.0448
2022-11-05T15:30:55.546Z,8.964233
2022-11-05T15:34:21.014Z,8.92395
2022-11-05T15:37:51.718Z,8.92395
2022-11-05T15:41:12.212Z,8.833313
2022-11-05T15:44:37.560Z,8.732605
2022-11-05T15:48:02.905Z,8.631897
2022-11-05T15:51:28.279Z,8.531189
2022-11-05T15:54:53.876Z,8.450623
2022-11-05T15:58:19.252Z,8.380127
2022-11-05T16:01:45.937Z,8.28949
2022-11-05T16:05:11.087Z,8.198853
2022-11-05T16:08:36.433Z,8.108215
2022-11-05T16:12:01.921Z,8.218994
2022-11-05T16:15:27.322Z,8.178711
2022-11-05T16:18:52.720Z,8.078003
2022-11-05T16:22:18.136Z,7.967224
2022-11-05T16:25:43.511Z,7.896729
2022-11-05T16:29:08.909Z,7.967224
2022-11-05T16:32:34.453Z,7.997437
2022-11-05T16:35:59.925Z,8.007507
2022-11-05T16:39:25.245Z,8.007507
2022-11-05T16:42:52.486Z,7.886658
2022-11-05T16:46:19.126Z,7.745667
2022-11-05T16:49:44.234Z,7.685242
2022-11-05T16:53:10.402Z,7.6651
2022-11-05T16:56:36.523Z,7.614746
2022-11-05T17:00:02.127Z,7.705383
2022-11-05T17:03:27.479Z,7.745667
2022-11-05T17:06:52.836Z,7.78595
2022-11-05T17:10:18.305Z,7.796021
2022-11-05T17:13:43.619Z,7.866516
2022-11-05T17:17:08.941Z,7.856445
2022-11-05T17:20:39.739Z,7.866516
2022-11-05T17:24:01.248Z,7.91687
2022-11-05T17:27:26.584Z,7.947083
2022-11-05T17:30:53.241Z,7.997437
2022-11-05T17:34:17.493Z,8.078003
2022-11-05T17:37:43.126Z,8.188782
2022-11-05T17:41:08.470Z,8.249207
2022-11-05T17:44:33.805Z,8.249207
2022-11-05T17:48:00.154Z,8.259277
2022-11-05T17:51:27.012Z,8.28949
2022-11-05T17:54:52.741Z,8.28949
2022-11-05T17:58:18.362Z,8.339844
2022-11-05T18:01:44.064Z,8.410339
2022-11-05T18:05:09.416Z,8.400269
2022-11-05T18:08:34.905Z,8.359985
2022-11-05T18:12:00.464Z,8.359985
2022-11-05T18:15:25.891Z,8.339844
2022-11-05T18:18:51.312Z,8.400269
2022-11-05T18:22:17.140Z,8.440552
2022-11-05T18:25:42.922Z,8.400269
2022-11-05T18:29:13.965Z,8.359985
2022-11-05T18:32:41.042Z,8.279419
2022-11-05T18:36:40.855Z,8.28949
2022-11-05T18:42:16.736Z,8.249207
2022-11-05T18:45:51.989Z,8.188782
2022-11-05T18:49:21.490Z,8.108215
2022-11-05T18:52:59.257Z,8.078003
2022-11-05T18:56:37.134Z,7.977295
2022-11-05T19:00:13.985Z,7.997437
2022-11-05T19:03:44.283Z,7.997437
2022-11-05T19:07:12.678Z,7.926941
2022-11-05T19:10:40.663Z,7.967224
2022-11-05T19:14:10.989Z,7.926941
2022-11-05T19:17:42.839Z,7.91687
2022-11-05T19:21:15.483Z,7.886658
2022-11-05T19:24:46.664Z,7.91687
2022-11-05T19:28:23.536Z,7.846375
2022-11-05T19:31:52.644Z,7.78595
2022-11-05T19:35:31.127Z,7.796021
2022-11-05T19:39:01.933Z,7.765808
2022-11-05T19:42:32.835Z,7.675171
2022-11-05T19:46:16.854Z,7.644958
2022-11-05T19:49:51.790Z,7.715454
2022-11-05T19:53:18.864Z,7.745667
2022-11-05T19:56:49.108Z,7.705383
2022-11-05T20:00:47.464Z,7.685242
2022-11-05T20:05:24.923Z,7.705383
2022-11-05T20:09:19.700Z,7.685242
2022-11-05T20:12:23.718Z,7.644958
2022-11-05T20:15:50.377Z,7.584534
2022-11-05T20:19:18.190Z,7.524109
2022-11-05T20:22:43.610Z,7.584534
2022-11-05T20:26:08.940Z,7.685242
2022-11-05T20:29:35.774Z,7.715454
2022-11-05T20:32:59.533Z,7.745667
2022-11-05T20:36:24.910Z,7.735596
2022-11-05T20:39:50.806Z,7.705383
2022-11-05T20:43:16.086Z,7.634888
2022-11-05T20:46:41.417Z,7.675171
2022-11-05T20:50:06.653Z,7.644958
2022-11-05T20:53:32.488Z,7.685242
2022-11-05T20:56:59.208Z,7.685242
2022-11-05T21:00:24.565Z,7.614746
2022-11-05T21:03:49.868Z,7.614746
2022-11-05T21:07:15.155Z,7.614746
2022-11-05T21:10:40.601Z,7.614746
2022-11-05T21:14:05.749Z,7.634888
2022-11-05T21:17:31.048Z,7.614746
2022-11-05T21:20:56.333Z,7.644958
2022-11-05T21:24:21.602Z,7.6651
2022-11-05T21:27:46.878Z,7.685242
2022-11-05T21:31:12.181Z,7.644958
2022-11-05T21:34:37.457Z,7.675171
2022-11-05T21:38:02.725Z,7.6651
2022-11-05T21:41:27.982Z,7.614746
2022-11-05T21:44:57.798Z,7.614746
2022-11-05T21:48:18.592Z,7.614746
2022-11-05T21:51:43.862Z,7.574463
2022-11-05T21:55:09.192Z,7.574463
2022-11-05T21:58:34.564Z,7.53418
2022-11-05T22:02:00.047Z,7.554321
2022-11-05T22:05:25.282Z,7.584534
2022-11-05T22:08:50.804Z,7.53418
2022-11-05T22:12:16.393Z,7.524109
2022-11-05T22:15:42.718Z,7.554321
2022-11-05T22:19:08.463Z,7.453613
2022-11-05T22:22:34.160Z,7.393188
2022-11-05T22:25:59.457Z,7.393188
2022-11-05T22:29:25.084Z,7.373047
2022-11-05T22:32:50.403Z,7.342834
2022-11-05T22:36:15.659Z,7.302551
2022-11-05T22:39:40.952Z,7.322693
2022-11-05T22:43:06.261Z,7.342834
2022-11-05T22:46:31.598Z,7.403259
2022-11-05T22:49:56.918Z,7.403259
2022-11-05T22:53:22.326Z,7.423401
2022-11-05T22:56:47.762Z,7.433472
2022-11-05T23:00:13.037Z,7.433472
2022-11-05T23:03:38.288Z,7.453613
2022-11-05T23:07:03.518Z,7.393188
2022-11-05T23:10:28.773Z,7.352905
2022-11-05T23:13:54.025Z,7.312622
2022-11-05T23:17:19.257Z,7.201843
2022-11-05T23:20:44.538Z,7.211914
2022-11-05T23:24:09.778Z,7.242126
2022-11-05T23:27:35.044Z,7.272339
2022-11-05T23:31:00.297Z,7.312622
2022-11-05T23:34:25.512Z,7.393188
2022-11-05T23:37:50.795Z,7.393188
2022-11-05T23:41:16.015Z,7.302551
2022-11-05T23:44:41.279Z,7.312622
2022-11-05T23:48:06.527Z,7.352905
2022-11-05T23:51:31.746Z,7.463684
2022-11-05T23:54:57.001Z,7.453613
2022-11-05T23:58:22.224Z,7.393188
